sensor_id;sensor_type;location;lat;lon;timestamp;P1;durP1;ratioP1;P2;durP2;ratioP2
34924;SDS011;21130;51.728;8.748;2023-02-01T00:00:36;20.20;;;6.03;;
34924;SDS011;21130;51.728;8.748;2023-02-01T00:03:03;16.88;;;5.05;;
34924;SDS011;21130;51.728;8.748;2023-02-01T00:05:30;20.17;;;5.65;;
34924;SDS011;21130;51.728;8.748;2023-02-01T00:07:57;19.05;;;6.38;;
34924;SDS011;21130;51.728;8.748;2023-02-01T00:10:24;19.80;;;6.25;;
34924;SDS011;21130;51.728;8.748;2023-02-01T00:12:51;23.38;;;6.43;;
34924;SDS011;21130;51.728;8.748;2023-02-01T00:15:17;15.63;;;5.47;;
34924;SDS011;21130;51.728;8.748;2023-02-01T00:17:44;18.10;;;5.90;;
34924;SDS011;21130;51.728;8.748;2023-02-01T00:20:11;21.08;;;6.30;;
34924;SDS011;21130;51.728;8.748;2023-02-01T00:22:37;15.68;;;5.97;;
34924;SDS011;21130;51.728;8.748;2023-02-01T00:25:04;24.10;;;6.70;;
34924;SDS011;21130;51.728;8.748;2023-02-01T00:27:32;19.50;;;5.38;;
34924;SDS011;21130;51.728;8.748;2023-02-01T00:29:59;18.88;;;6.43;;
34924;SDS011;21130;51.728;8.748;2023-02-01T00:32:25;17.38;;;5.80;;
34924;SDS011;21130;51.728;8.748;2023-02-01T00:34:51;15.70;;;6.10;;
34924;SDS011;21130;51.728;8.748;2023-02-01T00:37:19;15.35;;;6.20;;
34924;SDS011;21130;51.728;8.748;2023-02-01T00:39:46;17.10;;;6.55;;
34924;SDS011;21130;51.728;8.748;2023-02-01T00:42:13;16.80;;;6.07;;
34924;SDS011;21130;51.728;8.748;2023-02-01T00:44:41;19.83;;;6.78;;
34924;SDS011;21130;51.728;8.748;2023-02-01T00:47:07;17.13;;;6.72;;
34924;SDS011;21130;51.728;8.748;2023-02-01T00:49:34;20.58;;;6.30;;
34924;SDS011;21130;51.728;8.748;2023-02-01T00:52:00;19.85;;;7.13;;
34924;SDS011;21130;51.728;8.748;2023-02-01T00:54:26;24.67;;;7.05;;
34924;SDS011;21130;51.728;8.748;2023-02-01T00:56:53;26.20;;;6.55;;
34924;SDS011;21130;51.728;8.748;2023-02-01T00:59:19;22.90;;;7.80;;
34924;SDS011;21130;51.728;8.748;2023-02-01T01:01:47;28.17;;;7.00;;
34924;SDS011;21130;51.728;8.748;2023-02-01T01:04:13;22.02;;;7.07;;
34924;SDS011;21130;51.728;8.748;2023-02-01T01:06:40;25.77;;;7.93;;
34924;SDS011;21130;51.728;8.748;2023-02-01T01:09:07;26.90;;;8.77;;
34924;SDS011;21130;51.728;8.748;2023-02-01T01:11:34;21.80;;;6.97;;
34924;SDS011;21130;51.728;8.748;2023-02-01T01:14:02;21.17;;;8.13;;
34924;SDS011;21130;51.728;8.748;2023-02-01T01:16:30;24.65;;;7.88;;
34924;SDS011;21130;51.728;8.748;2023-02-01T01:18:58;26.80;;;8.50;;
34924;SDS011;21130;51.728;8.748;2023-02-01T01:21:25;27.52;;;8.23;;
34924;SDS011;21130;51.728;8.748;2023-02-01T01:23:52;21.80;;;7.32;;
34924;SDS011;21130;51.728;8.748;2023-02-01T01:26:20;23.83;;;8.02;;
34924;SDS011;21130;51.728;8.748;2023-02-01T01:28:48;27.85;;;9.38;;
34924;SDS011;21130;51.728;8.748;2023-02-01T01:31:15;23.10;;;8.75;;
34924;SDS011;21130;51.728;8.748;2023-02-01T01:33:43;22.25;;;8.80;;
34924;SDS011;21130;51.728;8.748;2023-02-01T01:36:11;22.25;;;9.05;;
34924;SDS011;21130;51.728;8.748;2023-02-01T01:38:38;32.53;;;9.82;;
34924;SDS011;21130;51.728;8.748;2023-02-01T01:41:05;21.65;;;8.95;;
34924;SDS011;21130;51.728;8.748;2023-02-01T01:43:50;29.98;;;10.45;;
34924;SDS011;21130;51.728;8.748;2023-02-01T01:46:19;25.67;;;10.15;;
34924;SDS011;21130;51.728;8.748;2023-02-01T01:48:48;23.33;;;10.55;;
34924;SDS011;21130;51.728;8.748;2023-02-01T01:51:20;26.08;;;10.88;;
34924;SDS011;21130;51.728;8.748;2023-02-01T01:53:53;27.38;;;11.75;;
34924;SDS011;21130;51.728;8.748;2023-02-01T01:56:24;29.77;;;12.38;;
34924;SDS011;21130;51.728;8.748;2023-02-01T01:58:52;24.42;;;10.95;;
34924;SDS011;21130;51.728;8.748;2023-02-01T02:01:19;26.48;;;11.60;;
34924;SDS011;21130;51.728;8.748;2023-02-01T02:03:46;23.63;;;11.02;;
34924;SDS011;21130;51.728;8.748;2023-02-01T02:06:15;25.40;;;11.88;;
34924;SDS011;21130;51.728;8.748;2023-02-01T02:08:52;27.80;;;11.60;;
34924;SDS011;21130;51.728;8.748;2023-02-01T02:11:19;24.05;;;11.02;;
34924;SDS011;21130;51.728;8.748;2023-02-01T02:13:46;21.38;;;11.32;;
34924;SDS011;21130;51.728;8.748;2023-02-01T02:16:19;20.80;;;9.98;;
34924;SDS011;21130;51.728;8.748;2023-02-01T02:18:57;24.55;;;11.15;;
34924;SDS011;21130;51.728;8.748;2023-02-01T02:21:45;20.88;;;9.63;;
34924;SDS011;21130;51.728;8.748;2023-02-01T02:24:34;22.83;;;10.73;;
34924;SDS011;21130;51.728;8.748;2023-02-01T02:27:18;26.55;;;10.35;;
34924;SDS011;21130;51.728;8.748;2023-02-01T02:29:56;29.33;;;9.88;;
34924;SDS011;21130;51.728;8.748;2023-02-01T02:33:16;28.08;;;10.00;;
34924;SDS011;21130;51.728;8.748;2023-02-01T02:35:55;24.48;;;9.68;;
34924;SDS011;21130;51.728;8.748;2023-02-01T02:38:29;24.52;;;8.93;;
34924;SDS011;21130;51.728;8.748;2023-02-01T02:41:04;26.23;;;9.23;;
34924;SDS011;21130;51.728;8.748;2023-02-01T02:43:37;19.95;;;8.20;;
34924;SDS011;21130;51.728;8.748;2023-02-01T02:46:31;21.70;;;7.63;;
34924;SDS011;21130;51.728;8.748;2023-02-01T02:49:23;24.90;;;8.13;;
34924;SDS011;21130;51.728;8.748;2023-02-01T02:52:01;21.55;;;7.25;;
34924;SDS011;21130;51.728;8.748;2023-02-01T02:54:49;18.67;;;6.72;;
34924;SDS011;21130;51.728;8.748;2023-02-01T02:57:20;19.08;;;6.78;;
34924;SDS011;21130;51.728;8.748;2023-02-01T03:00:10;18.88;;;5.97;;
34924;SDS011;21130;51.728;8.748;2023-02-01T03:02:56;17.80;;;5.97;;
34924;SDS011;21130;51.728;8.748;2023-02-01T03:05:42;18.25;;;5.68;;
34924;SDS011;21130;51.728;8.748;2023-02-01T03:08:22;14.07;;;5.38;;
34924;SDS011;21130;51.728;8.748;2023-02-01T03:10:52;15.13;;;5.18;;
34924;SDS011;21130;51.728;8.748;2023-02-01T03:13:24;14.93;;;5.57;;
34924;SDS011;21130;51.728;8.748;2023-02-01T03:15:57;19.92;;;5.38;;
34924;SDS011;21130;51.728;8.748;2023-02-01T03:18:32;17.75;;;5.38;;
34924;SDS011;21130;51.728;8.748;2023-02-01T03:21:05;17.23;;;5.22;;
34924;SDS011;21130;51.728;8.748;2023-02-01T03:23:36;15.88;;;4.85;;
34924;SDS011;21130;51.728;8.748;2023-02-01T03:26:04;22.23;;;5.15;;
34924;SDS011;21130;51.728;8.748;2023-02-01T03:28:33;19.65;;;5.00;;
34924;SDS011;21130;51.728;8.748;2023-02-01T03:31:01;17.83;;;5.25;;
34924;SDS011;21130;51.728;8.748;2023-02-01T03:33:28;19.20;;;5.00;;
34924;SDS011;21130;51.728;8.748;2023-02-01T03:35:58;14.48;;;4.78;;
34924;SDS011;21130;51.728;8.748;2023-02-01T03:38:34;17.27;;;5.13;;
34924;SDS011;21130;51.728;8.748;2023-02-01T03:41:08;13.63;;;4.60;;
34924;SDS011;21130;51.728;8.748;2023-02-01T03:43:41;14.35;;;4.32;;
34924;SDS011;21130;51.728;8.748;2023-02-01T03:46:16;19.60;;;4.72;;
34924;SDS011;21130;51.728;8.748;2023-02-01T03:48:46;18.55;;;4.97;;
34924;SDS011;21130;51.728;8.748;2023-02-01T03:51:35;17.17;;;4.47;;
34924;SDS011;21130;51.728;8.748;2023-02-01T03:54:23;14.02;;;4.63;;
34924;SDS011;21130;51.728;8.748;2023-02-01T03:57:09;17.50;;;4.15;;
34924;SDS011;21130;51.728;8.748;2023-02-01T04:00:03;18.60;;;4.75;;
34924;SDS011;21130;51.728;8.748;2023-02-01T04:02:51;24.77;;;5.35;;
34924;SDS011;21130;51.728;8.748;2023-02-01T04:05:38;19.25;;;4.38;;
34924;SDS011;21130;51.728;8.748;2023-02-01T04:08:23;17.02;;;4.90;;
34924;SDS011;21130;51.728;8.748;2023-02-01T04:10:51;13.40;;;4.40;;
34924;SDS011;21130;51.728;8.748;2023-02-01T04:13:18;17.00;;;4.93;;
34924;SDS011;21130;51.728;8.748;2023-02-01T04:15:44;15.85;;;4.95;;
34924;SDS011;21130;51.728;8.748;2023-02-01T04:18:14;22.23;;;4.93;;
34924;SDS011;21130;51.728;8.748;2023-02-01T04:20:41;16.20;;;4.95;;
34924;SDS011;21130;51.728;8.748;2023-02-01T04:23:08;18.50;;;4.97;;
34924;SDS011;21130;51.728;8.748;2023-02-01T04:25:35;18.50;;;5.03;;
34924;SDS011;21130;51.728;8.748;2023-02-01T04:28:03;19.10;;;5.00;;
34924;SDS011;21130;51.728;8.748;2023-02-01T04:30:29;13.93;;;4.40;;
34924;SDS011;21130;51.728;8.748;2023-02-01T04:32:56;14.02;;;4.75;;
34924;SDS011;21130;51.728;8.748;2023-02-01T04:35:22;14.43;;;4.88;;
34924;SDS011;21130;51.728;8.748;2023-02-01T04:37:48;16.42;;;4.60;;
34924;SDS011;21130;51.728;8.748;2023-02-01T04:40:15;15.30;;;4.85;;
34924;SDS011;21130;51.728;8.748;2023-02-01T04:42:42;22.30;;;5.68;;
34924;SDS011;21130;51.728;8.748;2023-02-01T04:45:10;20.27;;;5.68;;
34924;SDS011;21130;51.728;8.748;2023-02-01T04:47:36;17.83;;;5.03;;
34924;SDS011;21130;51.728;8.748;2023-02-01T04:50:03;20.98;;;4.68;;
34924;SDS011;21130;51.728;8.748;2023-02-01T04:52:30;18.30;;;5.93;;
34924;SDS011;21130;51.728;8.748;2023-02-01T04:54:57;19.00;;;5.97;;
34924;SDS011;21130;51.728;8.748;2023-02-01T04:57:25;18.52;;;5.22;;
34924;SDS011;21130;51.728;8.748;2023-02-01T04:59:51;22.88;;;5.03;;
34924;SDS011;21130;51.728;8.748;2023-02-01T05:02:19;17.35;;;4.22;;
34924;SDS011;21130;51.728;8.748;2023-02-01T05:04:45;19.95;;;5.22;;
34924;SDS011;21130;51.728;8.748;2023-02-01T05:07:12;17.70;;;4.28;;
34924;SDS011;21130;51.728;8.748;2023-02-01T05:09:38;21.92;;;4.65;;
34924;SDS011;21130;51.728;8.748;2023-02-01T05:12:05;21.75;;;4.85;;
34924;SDS011;21130;51.728;8.748;2023-02-01T05:14:49;15.93;;;4.85;;
34924;SDS011;21130;51.728;8.748;2023-02-01T05:17:16;14.23;;;4.50;;
34924;SDS011;21130;51.728;8.748;2023-02-01T05:19:43;20.13;;;5.57;;
34924;SDS011;21130;51.728;8.748;2023-02-01T05:22:10;17.15;;;3.70;;
34924;SDS011;21130;51.728;8.748;2023-02-01T05:24:36;14.75;;;4.85;;
34924;SDS011;21130;51.728;8.748;2023-02-01T05:27:02;18.67;;;4.53;;
34924;SDS011;21130;51.728;8.748;2023-02-01T05:29:29;15.23;;;4.63;;
34924;SDS011;21130;51.728;8.748;2023-02-01T05:31:55;19.48;;;4.15;;
34924;SDS011;21130;51.728;8.748;2023-02-01T05:34:22;15.02;;;4.38;;
34924;SDS011;21130;51.728;8.748;2023-02-01T05:36:49;19.98;;;4.78;;
34924;SDS011;21130;51.728;8.748;2023-02-01T05:39:16;19.70;;;4.18;;
34924;SDS011;21130;51.728;8.748;2023-02-01T05:41:42;18.63;;;4.90;;
34924;SDS011;21130;51.728;8.748;2023-02-01T05:44:09;23.38;;;4.63;;
34924;SDS011;21130;51.728;8.748;2023-02-01T05:46:36;13.55;;;4.15;;
34924;SDS011;21130;51.728;8.748;2023-02-01T05:49:02;16.95;;;4.65;;
34924;SDS011;21130;51.728;8.748;2023-02-01T05:51:29;18.67;;;3.78;;
34924;SDS011;21130;51.728;8.748;2023-02-01T05:53:57;21.15;;;4.32;;
34924;SDS011;21130;51.728;8.748;2023-02-01T05:56:24;17.23;;;4.47;;
34924;SDS011;21130;51.728;8.748;2023-02-01T05:58:50;19.52;;;4.60;;
34924;SDS011;21130;51.728;8.748;2023-02-01T06:01:17;16.58;;;4.40;;
34924;SDS011;21130;51.728;8.748;2023-02-01T06:03:43;18.08;;;4.78;;
34924;SDS011;21130;51.728;8.748;2023-02-01T06:06:09;18.15;;;4.60;;
34924;SDS011;21130;51.728;8.748;2023-02-01T06:08:36;18.67;;;4.57;;
34924;SDS011;21130;51.728;8.748;2023-02-01T06:11:06;19.58;;;4.45;;
34924;SDS011;21130;51.728;8.748;2023-02-01T06:13:33;19.25;;;4.60;;
34924;SDS011;21130;51.728;8.748;2023-02-01T06:15:59;18.50;;;5.00;;
34924;SDS011;21130;51.728;8.748;2023-02-01T06:18:26;14.32;;;3.83;;
34924;SDS011;21130;51.728;8.748;2023-02-01T06:20:53;15.85;;;4.55;;
34924;SDS011;21130;51.728;8.748;2023-02-01T06:23:20;13.80;;;3.30;;
34924;SDS011;21130;51.728;8.748;2023-02-01T06:25:48;18.38;;;4.10;;
34924;SDS011;21130;51.728;8.748;2023-02-01T06:28:16;17.20;;;4.20;;
34924;SDS011;21130;51.728;8.748;2023-02-01T06:30:42;16.35;;;4.22;;
34924;SDS011;21130;51.728;8.748;2023-02-01T06:33:11;13.93;;;4.15;;
34924;SDS011;21130;51.728;8.748;2023-02-01T06:35:37;15.98;;;3.45;;
34924;SDS011;21130;51.728;8.748;2023-02-01T06:38:04;25.85;;;4.75;;
34924;SDS011;21130;51.728;8.748;2023-02-01T06:40:30;21.75;;;4.68;;
34924;SDS011;21130;51.728;8.748;2023-02-01T06:42:56;18.98;;;4.40;;
34924;SDS011;21130;51.728;8.748;2023-02-01T06:45:24;13.20;;;3.75;;
34924;SDS011;21130;51.728;8.748;2023-02-01T06:47:51;21.58;;;4.60;;
34924;SDS011;21130;51.728;8.748;2023-02-01T06:50:17;19.30;;;4.22;;
34924;SDS011;21130;51.728;8.748;2023-02-01T06:52:44;16.35;;;4.53;;
34924;SDS011;21130;51.728;8.748;2023-02-01T06:55:10;17.27;;;3.90;;
34924;SDS011;21130;51.728;8.748;2023-02-01T06:57:37;12.48;;;4.32;;
34924;SDS011;21130;51.728;8.748;2023-02-01T07:00:04;15.73;;;4.18;;
34924;SDS011;21130;51.728;8.748;2023-02-01T07:02:33;19.38;;;4.10;;
34924;SDS011;21130;51.728;8.748;2023-02-01T07:05:02;16.73;;;4.90;;
34924;SDS011;21130;51.728;8.748;2023-02-01T07:07:28;13.15;;;3.92;;
34924;SDS011;21130;51.728;8.748;2023-02-01T07:09:55;21.98;;;4.68;;
34924;SDS011;21130;51.728;8.748;2023-02-01T07:12:22;14.20;;;4.30;;
34924;SDS011;21130;51.728;8.748;2023-02-01T07:14:48;13.05;;;4.00;;
34924;SDS011;21130;51.728;8.748;2023-02-01T07:17:15;17.13;;;4.40;;
34924;SDS011;21130;51.728;8.748;2023-02-01T07:19:42;15.55;;;4.65;;
34924;SDS011;21130;51.728;8.748;2023-02-01T07:22:09;19.60;;;4.10;;
34924;SDS011;21130;51.728;8.748;2023-02-01T07:24:35;18.92;;;4.05;;
34924;SDS011;21130;51.728;8.748;2023-02-01T07:27:01;18.52;;;3.80;;
34924;SDS011;21130;51.728;8.748;2023-02-01T07:29:28;21.80;;;4.68;;
34924;SDS011;21130;51.728;8.748;2023-02-01T07:31:54;13.10;;;4.40;;
34924;SDS011;21130;51.728;8.748;2023-02-01T07:34:21;19.17;;;4.78;;
34924;SDS011;21130;51.728;8.748;2023-02-01T07:36:49;12.52;;;4.28;;
34924;SDS011;21130;51.728;8.748;2023-02-01T07:39:36;18.75;;;4.20;;
34924;SDS011;21130;51.728;8.748;2023-02-01T07:42:22;14.25;;;4.22;;
34924;SDS011;21130;51.728;8.748;2023-02-01T07:45:09;19.10;;;3.42;;
34924;SDS011;21130;51.728;8.748;2023-02-01T07:47:59;13.18;;;4.15;;
34924;SDS011;21130;51.728;8.748;2023-02-01T07:50:45;15.35;;;3.53;;
34924;SDS011;21130;51.728;8.748;2023-02-01T07:53:34;17.17;;;5.05;;
34924;SDS011;21130;51.728;8.748;2023-02-01T07:56:21;12.75;;;3.88;;
34924;SDS011;21130;51.728;8.748;2023-02-01T07:59:08;14.07;;;3.75;;
34924;SDS011;21130;51.728;8.748;2023-02-01T08:01:56;17.55;;;3.55;;
34924;SDS011;21130;51.728;8.748;2023-02-01T08:04:22;14.30;;;4.13;;
34924;SDS011;21130;51.728;8.748;2023-02-01T08:06:49;16.00;;;3.47;;
34924;SDS011;21130;51.728;8.748;2023-02-01T08:09:16;16.33;;;4.00;;
34924;SDS011;21130;51.728;8.748;2023-02-01T08:11:43;12.95;;;3.63;;
34924;SDS011;21130;51.728;8.748;2023-02-01T08:14:09;14.88;;;4.25;;
34924;SDS011;21130;51.728;8.748;2023-02-01T08:16:36;21.75;;;5.10;;
34924;SDS011;21130;51.728;8.748;2023-02-01T08:19:04;16.13;;;4.05;;
34924;SDS011;21130;51.728;8.748;2023-02-01T08:21:30;10.85;;;4.18;;
34924;SDS011;21130;51.728;8.748;2023-02-01T08:24:01;14.63;;;4.18;;
34924;SDS011;21130;51.728;8.748;2023-02-01T08:26:30;17.40;;;4.70;;
34924;SDS011;21130;51.728;8.748;2023-02-01T08:28:58;17.92;;;4.05;;
34924;SDS011;21130;51.728;8.748;2023-02-01T08:31:26;15.45;;;3.70;;
34924;SDS011;21130;51.728;8.748;2023-02-01T08:33:54;15.27;;;4.38;;
34924;SDS011;21130;51.728;8.748;2023-02-01T08:36:23;14.77;;;4.55;;
34924;SDS011;21130;51.728;8.748;2023-02-01T08:38:50;15.57;;;4.15;;
34924;SDS011;21130;51.728;8.748;2023-02-01T08:41:18;17.13;;;4.32;;
34924;SDS011;21130;51.728;8.748;2023-02-01T08:43:47;14.98;;;4.40;;
34924;SDS011;21130;51.728;8.748;2023-02-01T08:46:13;20.38;;;4.65;;
34924;SDS011;21130;51.728;8.748;2023-02-01T08:48:41;17.00;;;4.70;;
34924;SDS011;21130;51.728;8.748;2023-02-01T08:51:08;16.63;;;5.45;;
34924;SDS011;21130;51.728;8.748;2023-02-01T08:53:37;16.80;;;4.70;;
34924;SDS011;21130;51.728;8.748;2023-02-01T08:56:05;18.08;;;5.63;;
34924;SDS011;21130;51.728;8.748;2023-02-01T08:58:32;23.02;;;5.05;;
34924;SDS011;21130;51.728;8.748;2023-02-01T09:01:03;15.25;;;4.68;;
34924;SDS011;21130;51.728;8.748;2023-02-01T09:03:30;14.48;;;4.25;;
34924;SDS011;21130;51.728;8.748;2023-02-01T09:05:59;19.35;;;5.30;;
34924;SDS011;21130;51.728;8.748;2023-02-01T09:08:26;22.30;;;5.55;;
34924;SDS011;21130;51.728;8.748;2023-02-01T09:10:52;20.27;;;4.90;;
34924;SDS011;21130;51.728;8.748;2023-02-01T09:13:19;15.95;;;4.45;;
34924;SDS011;21130;51.728;8.748;2023-02-01T09:15:47;18.10;;;4.22;;
34924;SDS011;21130;51.728;8.748;2023-02-01T09:18:18;19.52;;;4.65;;
34924;SDS011;21130;51.728;8.748;2023-02-01T09:20:45;15.63;;;4.78;;
34924;SDS011;21130;51.728;8.748;2023-02-01T09:23:11;18.58;;;4.72;;
34924;SDS011;21130;51.728;8.748;2023-02-01T09:25:38;21.80;;;5.28;;
34924;SDS011;21130;51.728;8.748;2023-02-01T09:28:04;17.55;;;4.82;;
34924;SDS011;21130;51.728;8.748;2023-02-01T09:30:31;18.38;;;4.32;;
34924;SDS011;21130;51.728;8.748;2023-02-01T09:32:57;20.50;;;4.50;;
34924;SDS011;21130;51.728;8.748;2023-02-01T09:35:25;20.13;;;5.55;;
34924;SDS011;21130;51.728;8.748;2023-02-01T09:37:52;22.45;;;5.93;;
34924;SDS011;21130;51.728;8.748;2023-02-01T09:40:18;14.85;;;4.90;;
34924;SDS011;21130;51.728;8.748;2023-02-01T09:42:53;21.63;;;5.45;;
34924;SDS011;21130;51.728;8.748;2023-02-01T09:45:28;19.52;;;5.00;;
34924;SDS011;21130;51.728;8.748;2023-02-01T09:48:08;18.02;;;5.28;;
34924;SDS011;21130;51.728;8.748;2023-02-01T09:50:40;18.70;;;6.10;;
34924;SDS011;21130;51.728;8.748;2023-02-01T09:53:11;16.58;;;4.75;;
34924;SDS011;21130;51.728;8.748;2023-02-01T09:55:43;18.17;;;5.22;;
34924;SDS011;21130;51.728;8.748;2023-02-01T09:58:13;21.42;;;6.30;;
34924;SDS011;21130;51.728;8.748;2023-02-01T10:00:43;18.63;;;4.75;;
34924;SDS011;21130;51.728;8.748;2023-02-01T10:03:15;11.35;;;4.60;;
34924;SDS011;21130;51.728;8.748;2023-02-01T10:05:47;17.77;;;5.78;;
34924;SDS011;21130;51.728;8.748;2023-02-01T10:08:24;19.52;;;6.00;;
34924;SDS011;21130;51.728;8.748;2023-02-01T10:11:01;20.67;;;6.00;;
34924;SDS011;21130;51.728;8.748;2023-02-01T10:13:35;22.38;;;6.72;;
34924;SDS011;21130;51.728;8.748;2023-02-01T10:16:16;18.98;;;6.00;;
34924;SDS011;21130;51.728;8.748;2023-02-01T10:18:56;16.83;;;6.07;;
34924;SDS011;21130;51.728;8.748;2023-02-01T10:21:40;21.08;;;5.93;;
34924;SDS011;21130;51.728;8.748;2023-02-01T10:24:28;20.73;;;6.95;;
34924;SDS011;21130;51.728;8.748;2023-02-01T10:27:06;21.83;;;6.32;;
34924;SDS011;21130;51.728;8.748;2023-02-01T10:29:39;21.08;;;6.25;;
34924;SDS011;21130;51.728;8.748;2023-02-01T10:32:19;17.83;;;6.30;;
34924;SDS011;21130;51.728;8.748;2023-02-01T10:34:48;21.73;;;6.63;;
34924;SDS011;21130;51.728;8.748;2023-02-01T10:37:23;17.73;;;5.95;;
34924;SDS011;21130;51.728;8.748;2023-02-01T10:39:52;22.60;;;5.93;;
34924;SDS011;21130;51.728;8.748;2023-02-01T10:42:21;16.67;;;5.63;;
34924;SDS011;21130;51.728;8.748;2023-02-01T10:44:51;23.05;;;6.85;;
34924;SDS011;21130;51.728;8.748;2023-02-01T10:47:20;16.25;;;5.45;;
34924;SDS011;21130;51.728;8.748;2023-02-01T10:49:48;19.40;;;5.72;;
34924;SDS011;21130;51.728;8.748;2023-02-01T10:52:23;21.17;;;6.47;;
34924;SDS011;21130;51.728;8.748;2023-02-01T10:58:01;16.85;;;6.15;;
34924;SDS011;21130;51.728;8.748;2023-02-01T11:00:36;21.85;;;6.50;;
34924;SDS011;21130;51.728;8.748;2023-02-01T11:03:32;23.55;;;6.47;;
34924;SDS011;21130;51.728;8.748;2023-02-01T11:06:02;19.45;;;6.47;;
34924;SDS011;21130;51.728;8.748;2023-02-01T11:08:42;18.38;;;6.28;;
34924;SDS011;21130;51.728;8.748;2023-02-01T11:11:11;16.77;;;6.53;;
34924;SDS011;21130;51.728;8.748;2023-02-01T11:13:38;18.25;;;6.50;;
34924;SDS011;21130;51.728;8.748;2023-02-01T11:16:06;21.27;;;7.15;;
34924;SDS011;21130;51.728;8.748;2023-02-01T11:18:38;17.45;;;6.05;;
34924;SDS011;21130;51.728;8.748;2023-02-01T11:21:05;21.65;;;6.63;;
34924;SDS011;21130;51.728;8.748;2023-02-01T11:23:32;17.73;;;7.93;;
34924;SDS011;21130;51.728;8.748;2023-02-01T11:26:26;18.20;;;7.25;;
34924;SDS011;21130;51.728;8.748;2023-02-01T11:28:55;15.82;;;6.65;;
34924;SDS011;21130;51.728;8.748;2023-02-01T11:31:24;17.05;;;7.70;;
34924;SDS011;21130;51.728;8.748;2023-02-01T11:33:53;16.20;;;7.45;;
34924;SDS011;21130;51.728;8.748;2023-02-01T11:36:24;21.00;;;7.28;;
34924;SDS011;21130;51.728;8.748;2023-02-01T11:39:07;21.60;;;7.90;;
34924;SDS011;21130;51.728;8.748;2023-02-01T11:41:41;20.58;;;7.28;;
34924;SDS011;21130;51.728;8.748;2023-02-01T11:44:18;18.13;;;7.85;;
34924;SDS011;21130;51.728;8.748;2023-02-01T11:46:47;17.52;;;7.60;;
34924;SDS011;21130;51.728;8.748;2023-02-01T11:49:18;18.27;;;7.47;;
34924;SDS011;21130;51.728;8.748;2023-02-01T11:51:51;18.48;;;7.70;;
34924;SDS011;21130;51.728;8.748;2023-02-01T11:54:32;22.55;;;7.63;;
34924;SDS011;21130;51.728;8.748;2023-02-01T11:57:12;16.13;;;7.82;;
34924;SDS011;21130;51.728;8.748;2023-02-01T11:59:54;16.58;;;6.85;;
34924;SDS011;21130;51.728;8.748;2023-02-01T12:02:39;18.17;;;7.32;;
34924;SDS011;21130;51.728;8.748;2023-02-01T12:05:25;19.00;;;7.78;;
34924;SDS011;21130;51.728;8.748;2023-02-01T12:08:11;17.02;;;7.38;;
34924;SDS011;21130;51.728;8.748;2023-02-01T12:11:04;18.55;;;7.18;;
34924;SDS011;21130;51.728;8.748;2023-02-01T12:13:47;15.05;;;7.13;;
34924;SDS011;21130;51.728;8.748;2023-02-01T12:16:25;19.43;;;8.70;;
34924;SDS011;21130;51.728;8.748;2023-02-01T12:21:51;18.80;;;7.78;;
34924;SDS011;21130;51.728;8.748;2023-02-01T12:24:38;18.50;;;8.32;;
34924;SDS011;21130;51.728;8.748;2023-02-01T12:27:25;20.08;;;8.00;;
34924;SDS011;21130;51.728;8.748;2023-02-01T12:33:30;23.95;;;8.82;;
34924;SDS011;21130;51.728;8.748;2023-02-01T12:36:29;23.08;;;9.02;;
34924;SDS011;21130;51.728;8.748;2023-02-01T12:39:09;23.98;;;8.68;;
34924;SDS011;21130;51.728;8.748;2023-02-01T12:41:48;25.58;;;8.73;;
34924;SDS011;21130;51.728;8.748;2023-02-01T12:44:24;22.65;;;8.57;;
34924;SDS011;21130;51.728;8.748;2023-02-01T12:46:57;20.05;;;9.38;;
34924;SDS011;21130;51.728;8.748;2023-02-01T12:49:28;19.58;;;8.43;;
34924;SDS011;21130;51.728;8.748;2023-02-01T12:52:04;24.92;;;9.40;;
34924;SDS011;21130;51.728;8.748;2023-02-01T12:54:37;19.52;;;10.30;;
34924;SDS011;21130;51.728;8.748;2023-02-01T12:57:11;21.90;;;9.38;;
34924;SDS011;21130;51.728;8.748;2023-02-01T12:59:42;22.42;;;9.77;;
34924;SDS011;21130;51.728;8.748;2023-02-01T13:02:16;23.38;;;9.60;;
34924;SDS011;21130;51.728;8.748;2023-02-01T13:04:52;22.95;;;9.25;;
34924;SDS011;21130;51.728;8.748;2023-02-01T13:07:24;19.08;;;9.00;;
34924;SDS011;21130;51.728;8.748;2023-02-01T13:09:56;19.83;;;10.07;;
34924;SDS011;21130;51.728;8.748;2023-02-01T13:12:27;20.13;;;9.45;;
34924;SDS011;21130;51.728;8.748;2023-02-01T13:14:58;20.75;;;9.95;;
34924;SDS011;21130;51.728;8.748;2023-02-01T13:17:30;16.40;;;9.30;;
34924;SDS011;21130;51.728;8.748;2023-02-01T13:20:00;20.30;;;9.80;;
34924;SDS011;21130;51.728;8.748;2023-02-01T13:22:31;19.30;;;10.20;;
34924;SDS011;21130;51.728;8.748;2023-02-01T13:25:02;19.27;;;10.77;;
34924;SDS011;21130;51.728;8.748;2023-02-01T13:27:30;23.13;;;10.70;;
34924;SDS011;21130;51.728;8.748;2023-02-01T13:29:59;22.58;;;11.23;;
34924;SDS011;21130;51.728;8.748;2023-02-01T13:32:39;22.65;;;11.18;;
34924;SDS011;21130;51.728;8.748;2023-02-01T13:35:20;23.67;;;11.63;;
34924;SDS011;21130;51.728;8.748;2023-02-01T13:38:01;27.08;;;11.30;;
34924;SDS011;21130;51.728;8.748;2023-02-01T13:40:38;22.65;;;10.88;;
34924;SDS011;21130;51.728;8.748;2023-02-01T13:43:11;25.27;;;11.23;;
34924;SDS011;21130;51.728;8.748;2023-02-01T13:45:42;21.75;;;11.65;;
34924;SDS011;21130;51.728;8.748;2023-02-01T13:48:17;25.15;;;10.73;;
34924;SDS011;21130;51.728;8.748;2023-02-01T13:50:52;29.50;;;12.57;;
34924;SDS011;21130;51.728;8.748;2023-02-01T13:53:22;21.83;;;12.27;;
34924;SDS011;21130;51.728;8.748;2023-02-01T13:55:55;21.27;;;12.05;;
34924;SDS011;21130;51.728;8.748;2023-02-01T13:58:29;22.73;;;11.27;;
34924;SDS011;21130;51.728;8.748;2023-02-01T14:04:01;19.55;;;11.68;;
34924;SDS011;21130;51.728;8.748;2023-02-01T14:06:35;20.88;;;10.52;;
34924;SDS011;21130;51.728;8.748;2023-02-01T14:09:18;19.52;;;11.95;;
34924;SDS011;21130;51.728;8.748;2023-02-01T14:11:56;21.30;;;9.80;;
34924;SDS011;21130;51.728;8.748;2023-02-01T14:23:22;19.92;;;8.88;;
34924;SDS011;21130;51.728;8.748;2023-02-01T14:26:02;25.90;;;8.27;;
34924;SDS011;21130;51.728;8.748;2023-02-01T14:28:32;27.20;;;9.13;;
34924;SDS011;21130;51.728;8.748;2023-02-01T14:31:06;17.55;;;7.47;;
34924;SDS011;21130;51.728;8.748;2023-02-01T14:33:41;21.65;;;7.20;;
34924;SDS011;21130;51.728;8.748;2023-02-01T14:36:10;22.77;;;6.97;;
34924;SDS011;21130;51.728;8.748;2023-02-01T14:38:40;19.08;;;6.40;;
34924;SDS011;21130;51.728;8.748;2023-02-01T14:41:23;20.90;;;6.15;;
34924;SDS011;21130;51.728;8.748;2023-02-01T14:50:13;17.45;;;5.80;;
34924;SDS011;21130;51.728;8.748;2023-02-01T14:53:03;14.07;;;5.07;;
34924;SDS011;21130;51.728;8.748;2023-02-01T14:55:39;16.08;;;4.88;;
34924;SDS011;21130;51.728;8.748;2023-02-01T14:58:14;9.95;;;4.32;;
34924;SDS011;21130;51.728;8.748;2023-02-01T15:00:47;19.75;;;8.38;;
34924;SDS011;21130;51.728;8.748;2023-02-01T15:03:23;16.20;;;4.43;;
34924;SDS011;21130;51.728;8.748;2023-02-01T15:05:59;15.38;;;5.18;;
34924;SDS011;21130;51.728;8.748;2023-02-01T15:08:27;12.40;;;4.53;;
34924;SDS011;21130;51.728;8.748;2023-02-01T15:10:58;13.30;;;4.28;;
34924;SDS011;21130;51.728;8.748;2023-02-01T15:13:28;18.10;;;4.97;;
34924;SDS011;21130;51.728;8.748;2023-02-01T15:16:02;19.27;;;4.78;;
34924;SDS011;21130;51.728;8.748;2023-02-01T15:18:30;13.48;;;4.47;;
34924;SDS011;21130;51.728;8.748;2023-02-01T15:20:57;14.57;;;4.53;;
34924;SDS011;21130;51.728;8.748;2023-02-01T15:23:25;18.90;;;5.07;;
34924;SDS011;21130;51.728;8.748;2023-02-01T15:25:52;15.68;;;3.53;;
34924;SDS011;21130;51.728;8.748;2023-02-01T15:28:21;4.40;;;2.20;;